KANQ/ANQ METAR and TAF weather

Enter ICAO airport designator
Station Type Date Time Source
KANQ METAR 2021/09/16 21:15 UTC NOAA

KANQ 162115Z AUTO 14006KT 10SM CLR 26/10 A3009 RMK AO2


Station Type Date Time Source
KANQ Decoded METAR 2021/09/16 21:15 UTC NOAA

Station name not available
Sep 16, 2021 - 05:15 PM EDT / 2021.09.16 2115 UTC
Wind: from the SE (140 degrees) at 7 MPH (6 KT):0
Visibility: 10 mile(s):0
Sky conditions: clear
Temperature: 78 F (26 C)
Dew Point: 50 F (10 C)
Relative Humidity: 36%
Pressure (altimeter): 30.09 in. Hg (1018 hPa)
ob: KANQ 162115Z AUTO 14006KT 10SM CLR 26/10 A3009 RMK AO2
cycle: 21

Station Type Date Time Source
KANQ TAF UTC NOAA

Error!

Example: see airport list